Terminal Aerodrome Forecast
Issued by NWS

Home | Current Version | Previous Version | Text Only | Print | Product List | Glossary On
Versions: 1 2 3 4 5 6 7 8 9 10 11 12
698
FTUS44 KEPZ 041736
TAFLRU
TAF
KLRU 041736Z 0418/0518 12011G17KT P6SM SKC
     FM050200 11008KT P6SM SCT100 SCT250
     FM051600 15012KT P6SM SCT080 BKN250=

USA.gov is the U.S. government's official web portal to all federal, state and local government web resources and services.